createdAt,value
2022-10-22T00:01:01.518Z,100781.34
2022-10-22T00:03:28.027Z,100772.91
2022-10-22T00:05:54.597Z,100785.94
2022-10-22T00:08:21.182Z,100782.75
2022-10-22T00:10:47.721Z,100789.28
2022-10-22T00:13:14.578Z,100796.47
2022-10-22T00:15:41.267Z,100795.03
2022-10-22T00:18:08.207Z,100793.78
2022-10-22T00:20:35.157Z,100796.91
2022-10-22T00:23:01.730Z,100793.72
2022-10-22T00:25:28.346Z,100801.78
2022-10-22T00:27:54.902Z,100798.81
2022-10-22T00:30:21.507Z,100800.13
2022-10-22T00:32:48.038Z,100796.31
2022-10-22T00:35:14.776Z,100806.41
2022-10-22T00:37:41.377Z,100811.06
2022-10-22T00:40:08.632Z,100815.72
2022-10-22T00:42:35.360Z,100810.63
2022-10-22T00:45:11.242Z,100819.00
2022-10-22T00:47:41.149Z,100818.25
2022-10-22T00:50:10.901Z,100806.88
2022-10-22T00:52:37.563Z,100809.84
2022-10-22T00:55:04.959Z,100812.81
2022-10-22T00:57:31.783Z,100815.97
2022-10-22T00:59:58.430Z,100814.28
2022-10-22T01:02:25.117Z,100810.50
2022-10-22T01:04:51.595Z,100820.41
2022-10-22T01:07:20.738Z,100823.19
2022-10-22T01:13:42.739Z,100820.84
2022-10-22T01:16:14.450Z,100822.94
2022-10-22T01:18:49.945Z,100815.97
2022-10-22T01:21:33.159Z,100823.34
2022-10-22T01:24:12.073Z,100825.88
2022-10-22T01:27:03.650Z,100826.13
2022-10-22T01:29:43.761Z,100824.81
2022-10-22T01:32:15.796Z,100824.81
2022-10-22T01:34:45.531Z,100833.06
2022-10-22T01:37:14.285Z,100822.06
2022-10-22T01:39:43.039Z,100822.69
2022-10-22T01:42:12.329Z,100817.84
2022-10-22T01:44:39.103Z,100828.16
2022-10-22T01:47:32.067Z,100817.38
2022-10-22T01:50:04.270Z,100814.25
2022-10-22T01:52:57.137Z,100814.72
2022-10-22T01:56:05.391Z,100816.63
2022-10-22T01:58:50.806Z,100793.19
2022-10-22T02:01:27.543Z,100813.06
2022-10-22T02:04:18.505Z,100825.94
2022-10-22T02:06:46.029Z,100819.19
2022-10-22T02:09:15.266Z,100808.84
2022-10-22T02:11:43.037Z,100818.97
2022-10-22T02:14:09.936Z,100822.09
2022-10-22T02:16:40.083Z,100815.13
2022-10-22T02:19:11.881Z,100797.16
2022-10-22T02:21:38.380Z,100813.41
2022-10-22T02:24:05.551Z,100817.59
2022-10-22T02:26:35.622Z,100819.88
2022-10-22T02:29:14.736Z,100827.03
2022-10-22T02:31:43.915Z,100831.53
2022-10-22T02:34:14.642Z,100816.13
2022-10-22T02:36:46.661Z,100821.97
2022-10-22T02:39:18.154Z,100823.44
2022-10-22T02:41:44.729Z,100815.06
2022-10-22T02:44:11.634Z,100817.31
2022-10-22T02:46:39.628Z,100803.66
2022-10-22T02:49:06.317Z,100816.94
2022-10-22T02:51:32.821Z,100802.84
2022-10-22T02:53:59.267Z,100807.28
2022-10-22T02:56:25.822Z,100811.72
2022-10-22T02:58:52.401Z,100822.63
2022-10-22T03:01:18.971Z,100819.88
2022-10-22T03:03:45.703Z,100820.50
2022-10-22T03:06:12.407Z,100831.47
2022-10-22T03:08:38.937Z,100817.94
2022-10-22T03:11:05.705Z,100833.56
2022-10-22T03:13:32.341Z,100830.16
2022-10-22T03:15:58.814Z,100830.16
2022-10-22T03:18:25.299Z,100835.03
2022-10-22T03:21:01.553Z,100827.66
2022-10-22T03:23:28.075Z,100830.41
2022-10-22T03:25:54.588Z,100828.06
2022-10-22T03:28:21.412Z,100825.94
2022-10-22T03:30:47.891Z,100831.88
2022-10-22T03:33:14.352Z,100835.91
2022-10-22T03:35:45.899Z,100832.69
2022-10-22T03:38:12.586Z,100829.94
2022-10-22T03:40:39.404Z,100830.81
2022-10-22T03:43:06.130Z,100831.59
2022-10-22T03:45:32.701Z,100842.78
2022-10-22T03:47:59.290Z,100836.03
2022-10-22T03:50:25.869Z,100832.25
2022-10-22T03:52:53.318Z,100850.19
2022-10-22T03:55:20.488Z,100845.31
2022-10-22T03:57:46.952Z,100838.75
2022-10-22T04:00:13.562Z,100852.88
2022-10-22T04:02:40.028Z,100850.97
2022-10-22T04:05:07.120Z,100846.16
2022-10-22T04:07:33.724Z,100865.06
2022-10-22T04:10:00.298Z,100851.22
2022-10-22T04:12:26.787Z,100850.75
2022-10-22T04:14:53.313Z,100856.84
2022-10-22T04:17:20.036Z,100838.34
2022-10-22T04:19:46.514Z,100864.47
2022-10-22T04:22:13.256Z,100865.25
2022-10-22T04:24:39.921Z,100854.69
2022-10-22T04:27:06.413Z,100868.16
2022-10-22T04:29:32.905Z,100870.00
2022-10-22T04:31:59.520Z,100878.97
2022-10-22T04:34:29.057Z,100871.59
2022-10-22T04:36:55.794Z,100870.16
2022-10-22T04:39:22.247Z,100876.22
2022-10-22T04:41:48.709Z,100898.31
2022-10-22T04:44:16.839Z,100881.66
2022-10-22T04:46:45.104Z,100886.44
2022-10-22T04:49:11.566Z,100897.97
2022-10-22T04:51:38.241Z,100885.97
2022-10-22T04:54:04.758Z,100887.47
2022-10-22T04:56:32.182Z,100900.97
2022-10-22T04:59:04.360Z,100900.78
2022-10-22T05:01:35.748Z,100898.88
2022-10-22T05:04:06.080Z,100900.84
2022-10-22T05:06:34.384Z,100901.44
2022-10-22T05:09:04.836Z,100907.94
2022-10-22T05:11:35.062Z,100910.31
2022-10-22T05:14:03.097Z,100911.53
2022-10-22T05:16:30.252Z,100915.84
2022-10-22T05:18:58.827Z,100910.75
2022-10-22T05:21:26.022Z,100908.19
2022-10-22T05:23:54.920Z,100922.09
2022-10-22T05:26:22.244Z,100912.19
2022-10-22T05:28:49.615Z,100927.19
2022-10-22T05:31:17.053Z,100918.53
2022-10-22T05:33:44.429Z,100912.19
2022-10-22T05:36:17.537Z,100911.28
2022-10-22T05:38:44.050Z,100924.97
2022-10-22T05:41:16.409Z,100926.63
2022-10-22T05:43:43.460Z,100931.63
2022-10-22T05:46:21.225Z,100935.00
2022-10-22T05:48:59.587Z,100933.97
2022-10-22T05:51:28.238Z,100937.75
2022-10-22T05:54:00.679Z,100940.03
2022-10-22T05:56:29.269Z,100944.84
2022-10-22T05:58:56.637Z,100947.78
2022-10-22T06:01:35.216Z,100954.19
2022-10-22T06:04:04.367Z,100945.31
2022-10-22T06:06:40.846Z,100959.19
2022-10-22T06:09:13.706Z,100957.78
2022-10-22T06:11:40.367Z,100967.09
2022-10-22T06:14:06.927Z,100962.91
2022-10-22T06:16:33.538Z,100972.00
2022-10-22T06:19:03.028Z,100970.94
2022-10-22T06:21:30.543Z,100971.78
2022-10-22T06:23:58.378Z,100976.44
2022-10-22T06:26:24.959Z,100974.78
2022-10-22T06:28:51.538Z,100982.81
2022-10-22T06:31:18.109Z,100989.38
2022-10-22T06:33:44.601Z,100982.09
2022-10-22T06:36:14.175Z,100987.56
2022-10-22T06:38:40.854Z,100989.91
2022-10-22T06:41:10.317Z,100986.31
2022-10-22T06:43:36.938Z,100992.91
2022-10-22T06:46:07.384Z,100990.97
2022-10-22T06:48:35.951Z,100993.66
2022-10-22T06:51:03.942Z,100989.00
2022-10-22T06:53:30.524Z,101012.09
2022-10-22T06:55:57.193Z,101027.00
2022-10-22T06:58:23.867Z,101031.88
2022-10-22T07:00:50.352Z,101037.28
2022-10-22T07:03:16.833Z,101040.66
2022-10-22T07:05:43.373Z,101053.72
2022-10-22T07:08:09.851Z,101033.09
2022-10-22T07:10:36.358Z,101040.84
2022-10-22T07:13:02.905Z,101055.78
2022-10-22T07:15:29.419Z,101052.19
2022-10-22T07:17:55.982Z,101050.97
2022-10-22T07:20:22.460Z,101072.69
2022-10-22T07:22:48.941Z,101071.31
2022-10-22T07:25:15.617Z,101065.00
2022-10-22T07:27:42.443Z,101068.81
2022-10-22T07:30:09.730Z,101081.63
2022-10-22T07:32:37.056Z,101088.38
2022-10-22T07:35:04.581Z,101096.00
2022-10-22T07:37:31.061Z,101087.47
2022-10-22T07:40:00.275Z,101104.34
2022-10-22T07:45:00.765Z,101092.06
2022-10-22T07:47:27.394Z,101102.13
2022-10-22T07:49:53.944Z,101109.63
2022-10-22T07:52:20.470Z,101101.03
2022-10-22T07:54:46.966Z,101114.53
2022-10-22T07:57:13.443Z,101121.50
2022-10-22T07:59:39.999Z,101120.16
2022-10-22T08:02:07.129Z,101129.63
2022-10-22T08:04:33.618Z,101127.59
2022-10-22T08:07:01.052Z,101133.34
2022-10-22T08:09:27.602Z,101131.53
2022-10-22T08:11:54.873Z,101144.88
2022-10-22T08:14:21.803Z,101143.22
2022-10-22T08:16:48.335Z,101148.63
2022-10-22T08:19:18.787Z,101148.94
2022-10-22T08:21:46.060Z,101141.69
2022-10-22T08:24:13.712Z,101150.53
2022-10-22T08:26:40.924Z,101150.38
2022-10-22T08:29:07.603Z,101148.34
2022-10-22T08:31:34.565Z,101162.84
2022-10-22T08:34:01.033Z,101154.00
2022-10-22T08:36:27.515Z,101164.63
2022-10-22T08:38:54.010Z,101158.06
2022-10-22T08:41:22.737Z,101156.44
2022-10-22T08:44:15.802Z,101158.53
2022-10-22T08:46:52.789Z,101170.59
2022-10-22T08:49:23.335Z,101173.84
2022-10-22T08:51:50.406Z,101190.91
2022-10-22T08:54:47.423Z,101180.50
2022-10-22T08:57:24.654Z,101177.59
2022-10-22T08:59:58.209Z,101186.97
2022-10-22T09:02:38.438Z,101192.03
2022-10-22T09:08:24.483Z,101196.16
2022-10-22T09:10:56.794Z,101200.22
2022-10-22T09:13:23.865Z,101208.53
2022-10-22T09:15:56.318Z,101196.91
2022-10-22T09:18:44.565Z,101207.28
2022-10-22T09:21:34.799Z,101209.97
2022-10-22T09:24:04.677Z,101213.31
2022-10-22T09:26:33.780Z,101213.19
2022-10-22T09:29:01.015Z,101213.41
2022-10-22T09:31:28.237Z,101209.16
2022-10-22T09:33:54.809Z,101205.03
2022-10-22T09:36:22.560Z,101211.34
2022-10-22T09:38:52.516Z,101207.97
2022-10-22T09:41:20.797Z,101216.78
2022-10-22T09:43:47.950Z,101217.84
2022-10-22T09:46:18.048Z,101231.84
2022-10-22T09:48:49.086Z,101227.16
2022-10-22T09:54:41.354Z,101230.84
2022-10-22T09:57:16.757Z,101224.69
2022-10-22T09:59:45.292Z,101239.59
2022-10-22T10:02:37.613Z,101226.13
2022-10-22T10:05:06.242Z,101222.44
2022-10-22T10:07:34.310Z,101231.91
2022-10-22T10:10:00.871Z,101248.00
2022-10-22T10:12:42.265Z,101241.59
2022-10-22T10:15:25.031Z,101241.81
2022-10-22T10:18:10.797Z,101242.84
2022-10-22T10:20:41.948Z,101255.00
2022-10-22T10:23:10.477Z,101258.50
2022-10-22T10:25:55.824Z,101265.75
2022-10-22T10:28:22.134Z,101260.16
2022-10-22T10:31:01.786Z,101277.38
2022-10-22T10:33:37.427Z,101269.28
2022-10-22T10:36:14.981Z,101271.50
2022-10-22T10:38:58.014Z,101279.25
2022-10-22T10:41:40.052Z,101290.19
2022-10-22T10:44:12.490Z,101280.00
2022-10-22T10:46:50.325Z,101274.66
2022-10-22T10:49:35.081Z,101290.25
2022-10-22T10:52:20.349Z,101284.09
2022-10-22T10:54:56.984Z,101289.66
2022-10-22T10:57:35.637Z,101294.56
2022-10-22T11:00:05.334Z,101292.41
2022-10-22T11:02:37.407Z,101297.94
2022-10-22T11:05:25.558Z,101308.28
2022-10-22T11:08:00.108Z,101295.16
2022-10-22T11:10:45.008Z,101294.31
2022-10-22T11:13:19.543Z,101294.97
2022-10-22T11:15:50.726Z,101295.81
2022-10-22T11:18:26.617Z,101306.19
2022-10-22T11:21:11.524Z,101303.88
2022-10-22T11:24:06.095Z,101316.78
2022-10-22T11:26:49.258Z,101304.44
2022-10-22T11:29:23.157Z,101312.41
2022-10-22T11:31:51.912Z,101310.84
2022-10-22T11:34:33.185Z,101320.38
2022-10-22T11:37:01.561Z,101315.47
2022-10-22T11:39:59.799Z,101307.13
2022-10-22T11:42:38.609Z,101318.50
2022-10-22T11:45:08.029Z,101307.09
2022-10-22T11:48:09.695Z,101308.16
2022-10-22T11:50:52.931Z,101315.47
2022-10-22T11:53:36.813Z,101309.19
2022-10-22T11:56:06.422Z,101320.06
2022-10-22T11:58:49.522Z,101319.69
2022-10-22T12:01:22.422Z,101325.69
2022-10-22T12:03:57.807Z,101321.38
2022-10-22T12:06:28.019Z,101327.13
2022-10-22T12:08:54.603Z,101328.28
2022-10-22T12:11:41.856Z,101322.44
2022-10-22T12:14:32.554Z,101323.09
2022-10-22T12:17:12.041Z,101321.03
2022-10-22T12:19:44.477Z,101319.69
2022-10-22T12:22:15.880Z,101319.34
2022-10-22T12:24:46.368Z,101325.44
2022-10-22T12:27:27.475Z,101311.56
2022-10-22T12:29:59.096Z,101313.88
2022-10-22T12:32:36.926Z,101302.00
2022-10-22T12:35:08.950Z,101319.44
2022-10-22T12:37:37.287Z,101316.16
2022-10-22T12:40:34.186Z,101322.94
2022-10-22T12:43:02.565Z,101318.50
2022-10-22T12:45:31.847Z,101318.56
2022-10-22T12:48:00.668Z,101315.63
2022-10-22T12:50:40.511Z,101318.75
2022-10-22T12:53:13.942Z,101322.63
2022-10-22T12:55:41.264Z,101310.75
2022-10-22T12:58:08.091Z,101312.91
2022-10-22T13:00:35.548Z,101320.59
2022-10-22T13:03:06.432Z,101334.56
2022-10-22T13:05:38.930Z,101312.09
2022-10-22T13:08:19.370Z,101326.31
2022-10-22T13:10:51.300Z,101313.06
2022-10-22T13:13:45.451Z,101312.09
2022-10-22T13:16:18.120Z,101315.06
2022-10-22T13:18:45.228Z,101309.16
2022-10-22T13:21:38.373Z,101314.84
2022-10-22T13:24:25.576Z,101302.06
2022-10-22T13:26:53.836Z,101309.59
2022-10-22T13:29:21.543Z,101313.56
2022-10-22T13:31:52.756Z,101301.50
2022-10-22T13:34:24.254Z,101297.56
2022-10-22T13:36:51.036Z,101297.31
2022-10-22T13:39:24.577Z,101304.13
2022-10-22T13:41:51.659Z,101312.38
2022-10-22T13:44:19.633Z,101334.34
2022-10-22T13:46:47.207Z,101319.13
2022-10-22T13:49:18.758Z,101324.38
2022-10-22T13:51:45.810Z,101317.41
2022-10-22T13:54:18.310Z,101322.50
2022-10-22T13:56:44.814Z,101310.69
2022-10-22T13:59:11.529Z,101322.84
2022-10-22T14:01:38.714Z,101324.06
2022-10-22T14:04:07.141Z,101339.22
2022-10-22T14:06:34.206Z,101333.53
2022-10-22T14:09:06.383Z,101334.72
2022-10-22T14:11:35.153Z,101339.38
2022-10-22T14:14:08.687Z,101333.66
2022-10-22T14:16:36.000Z,101342.72
2022-10-22T14:19:02.943Z,101342.13
2022-10-22T14:21:34.585Z,101343.34
2022-10-22T14:24:01.087Z,101330.00
2022-10-22T14:26:31.340Z,101334.00
2022-10-22T14:29:13.896Z,101336.63
2022-10-22T14:31:42.224Z,101344.03
2022-10-22T14:34:14.872Z,101331.84
2022-10-22T14:36:43.849Z,101334.22
2022-10-22T14:39:10.723Z,101338.94
2022-10-22T14:41:37.345Z,101334.19
2022-10-22T14:44:04.089Z,101327.94
2022-10-22T14:46:30.622Z,101338.09
2022-10-22T14:48:57.111Z,101339.59
2022-10-22T14:51:23.692Z,101326.28
2022-10-22T14:53:50.331Z,101334.78
2022-10-22T14:56:18.778Z,101335.66
2022-10-22T14:58:45.749Z,101342.13
2022-10-22T15:01:13.072Z,101341.66
2022-10-22T15:03:39.664Z,101342.19
2022-10-22T15:06:06.751Z,101335.81
2022-10-22T15:08:33.812Z,101342.28
2022-10-22T15:11:05.425Z,101333.72
2022-10-22T15:13:32.463Z,101343.47
2022-10-22T15:15:59.870Z,101335.69
2022-10-22T15:18:26.708Z,101339.59
2022-10-22T15:21:00.846Z,101331.88
2022-10-22T15:23:27.801Z,101339.91
2022-10-22T15:25:54.640Z,101343.41
2022-10-22T15:28:21.209Z,101343.22
2022-10-22T15:30:59.123Z,101351.78
2022-10-22T15:33:26.662Z,101350.56
2022-10-22T15:35:53.539Z,101356.78
2022-10-22T15:38:20.305Z,101354.31
2022-10-22T15:40:47.120Z,101360.47
2022-10-22T15:43:14.069Z,101363.63
2022-10-22T15:45:40.663Z,101357.94
2022-10-22T15:48:07.184Z,101365.56
2022-10-22T15:50:37.820Z,101356.41
2022-10-22T15:53:04.458Z,101364.25
2022-10-22T15:55:31.413Z,101354.50
2022-10-22T15:58:00.539Z,101372.91
2022-10-22T16:00:30.099Z,101370.78
2022-10-22T16:02:56.710Z,101371.44
2022-10-22T16:05:23.235Z,101362.50
2022-10-22T16:07:51.460Z,101356.59
2022-10-22T16:10:17.989Z,101359.13
2022-10-22T16:12:44.700Z,101363.34
2022-10-22T16:15:11.541Z,101356.97
2022-10-22T16:17:38.101Z,101367.53
2022-10-22T16:20:04.987Z,101367.34
2022-10-22T16:22:31.506Z,101365.31
2022-10-22T16:24:58.218Z,101360.63
2022-10-22T16:27:24.767Z,101354.84
2022-10-22T16:29:51.289Z,101363.06
2022-10-22T16:32:17.930Z,101357.34
2022-10-22T16:34:44.418Z,101363.16
2022-10-22T16:37:11.177Z,101367.22
2022-10-22T16:39:38.071Z,101371.97
2022-10-22T16:42:04.769Z,101378.13
2022-10-22T16:44:31.243Z,101378.09
2022-10-22T16:46:57.722Z,101390.53
2022-10-22T16:49:24.337Z,101391.06
2022-10-22T16:51:50.836Z,101391.88
2022-10-22T16:54:17.797Z,101395.69
2022-10-22T16:56:44.273Z,101408.75
2022-10-22T16:59:10.771Z,101405.03
2022-10-22T17:01:41.029Z,101400.31
2022-10-22T17:04:08.196Z,101404.53
2022-10-22T17:06:34.771Z,101400.72
2022-10-22T17:09:01.402Z,101394.28
2022-10-22T17:11:34.452Z,101394.59
2022-10-22T17:14:01.731Z,101395.94
2022-10-22T17:16:28.293Z,101400.59
2022-10-22T17:18:55.535Z,101409.38
2022-10-22T17:21:23.391Z,101408.94
2022-10-22T17:23:54.646Z,101404.41
2022-10-22T17:26:22.893Z,101400.56
2022-10-22T17:28:50.164Z,101399.47
2022-10-22T17:31:19.719Z,101405.44
2022-10-22T17:33:47.422Z,101393.19
2022-10-22T17:36:14.518Z,101405.81
2022-10-22T17:38:42.412Z,101416.13
2022-10-22T17:41:14.529Z,101412.53
2022-10-22T17:43:41.432Z,101414.66
2022-10-22T17:46:10.996Z,101414.66
2022-10-22T17:48:37.472Z,101413.31
2022-10-22T17:51:07.912Z,101429.59
2022-10-22T17:53:34.572Z,101421.09
2022-10-22T17:56:02.261Z,101431.88
2022-10-22T17:58:31.810Z,101431.34
2022-10-22T18:00:58.561Z,101442.31
2022-10-22T18:03:27.987Z,101433.72
2022-10-22T18:05:54.912Z,101436.47
2022-10-22T18:08:24.037Z,101435.41
2022-10-22T18:10:50.657Z,101451.59
2022-10-22T18:13:17.245Z,101439.38
2022-10-22T18:15:43.693Z,101440.84
2022-10-22T18:18:10.181Z,101451.34
2022-10-22T18:20:36.795Z,101438.38
2022-10-22T18:23:03.692Z,101438.84
2022-10-22T18:25:31.748Z,101445.00
2022-10-22T18:27:58.314Z,101444.25
2022-10-22T18:30:24.851Z,101442.28
2022-10-22T18:32:51.775Z,101447.31
2022-10-22T18:35:18.258Z,101441.63
2022-10-22T18:37:45.030Z,101437.38
2022-10-22T18:40:14.596Z,101437.97
2022-10-22T18:42:41.944Z,101430.09
2022-10-22T18:45:09.312Z,101438.91
2022-10-22T18:47:40.007Z,101436.16
2022-10-22T18:50:06.877Z,101436.34
2022-10-22T18:52:33.534Z,101434.63
2022-10-22T18:55:00.030Z,101433.59
2022-10-22T18:57:26.623Z,101422.44
2022-10-22T18:59:55.814Z,101422.25
2022-10-22T19:02:25.098Z,101427.44
2022-10-22T19:04:51.678Z,101419.41
2022-10-22T19:07:18.237Z,101429.56
2022-10-22T19:09:44.697Z,101421.31
2022-10-22T19:12:14.974Z,101427.84
2022-10-22T19:14:42.699Z,101422.34
2022-10-22T19:17:09.393Z,101422.16
2022-10-22T19:19:35.950Z,101421.22
2022-10-22T19:22:02.508Z,101420.44
2022-10-22T19:24:29.289Z,101412.94
2022-10-22T19:26:55.829Z,101418.56
2022-10-22T19:29:22.584Z,101429.53
2022-10-22T19:31:51.173Z,101428.19
2022-10-22T19:34:18.330Z,101425.69
2022-10-22T19:36:44.892Z,101424.28
2022-10-22T19:39:14.985Z,101419.09
2022-10-22T19:41:41.628Z,101415.31
2022-10-22T19:44:08.906Z,101419.84
2022-10-22T19:46:35.496Z,101419.63
2022-10-22T19:49:02.908Z,101421.47
2022-10-22T19:51:30.850Z,101420.13
2022-10-22T19:53:59.394Z,101423.25
2022-10-22T19:56:26.178Z,101423.34
2022-10-22T19:58:52.736Z,101424.19
2022-10-22T20:01:19.831Z,101417.38
2022-10-22T20:03:46.423Z,101410.56
2022-10-22T20:06:14.599Z,101409.34
2022-10-22T20:08:41.285Z,101411.91
2022-10-22T20:11:12.158Z,101408.13
2022-10-22T20:16:06.400Z,101410.72
2022-10-22T20:18:35.717Z,101400.75
2022-10-22T20:21:07.130Z,101406.06
2022-10-22T20:23:34.001Z,101414.97
2022-10-22T20:26:00.827Z,101423.75
2022-10-22T20:28:27.657Z,101423.72
2022-10-22T20:30:54.152Z,101430.19
2022-10-22T20:33:20.665Z,101431.78
2022-10-22T20:35:57.945Z,101435.94
2022-10-22T20:38:24.473Z,101439.72
2022-10-22T20:41:02.017Z,101443.03
2022-10-22T20:43:28.641Z,101452.50
2022-10-22T20:45:55.225Z,101444.66
2022-10-22T20:48:22.908Z,101438.72
2022-10-22T20:50:49.452Z,101447.41
2022-10-22T20:53:16.946Z,101447.97
2022-10-22T20:55:43.488Z,101444.00
2022-10-22T20:58:10.255Z,101440.22
2022-10-22T21:00:39.218Z,101444.84
2022-10-22T21:03:06.522Z,101431.88
2022-10-22T21:05:34.681Z,101423.84
2022-10-22T21:08:02.277Z,101421.75
2022-10-22T21:10:32.445Z,101423.00
2022-10-22T21:12:59.888Z,101426.31
2022-10-22T21:15:27.544Z,101438.34
2022-10-22T21:17:54.200Z,101433.22
2022-10-22T21:20:23.805Z,101438.50
2022-10-22T21:22:51.870Z,101438.25
2022-10-22T21:25:18.437Z,101432.72
2022-10-22T21:27:45.023Z,101429.88
2022-10-22T21:30:12.522Z,101419.56
2022-10-22T21:32:39.158Z,101419.09
2022-10-22T21:35:05.921Z,101422.34
2022-10-22T21:37:35.030Z,101421.88
2022-10-22T21:40:03.902Z,101423.56
2022-10-22T21:42:30.491Z,101427.06
2022-10-22T21:44:57.018Z,101424.59
2022-10-22T21:47:23.741Z,101431.78
2022-10-22T21:49:50.388Z,101429.59
2022-10-22T21:52:16.851Z,101429.31
2022-10-22T21:54:43.499Z,101427.28
2022-10-22T21:57:09.951Z,101434.00
2022-10-22T21:59:36.783Z,101425.22
2022-10-22T22:02:05.778Z,101429.88
2022-10-22T22:04:33.152Z,101424.75
2022-10-22T22:06:59.678Z,101427.84
2022-10-22T22:09:26.341Z,101431.63
2022-10-22T22:11:52.802Z,101427.84
2022-10-22T22:14:19.372Z,101429.41
2022-10-22T22:16:46.047Z,101423.53
2022-10-22T22:19:12.575Z,101429.88
2022-10-22T22:21:40.763Z,101420.78
2022-10-22T22:24:08.716Z,101412.75
2022-10-22T22:26:35.386Z,101410.84
2022-10-22T22:29:02.132Z,101415.31
2022-10-22T22:31:31.165Z,101414.72
2022-10-22T22:34:02.369Z,101414.25
2022-10-22T22:36:33.413Z,101412.50
2022-10-22T22:38:59.914Z,101414.09
2022-10-22T22:41:26.500Z,101420.25
2022-10-22T22:43:53.006Z,101413.34
2022-10-22T22:46:19.494Z,101419.13
2022-10-22T22:48:49.251Z,101417.88
2022-10-22T22:51:15.933Z,101416.19
2022-10-22T22:53:42.561Z,101413.16
2022-10-22T22:56:19.341Z,101402.38
2022-10-22T22:58:45.989Z,101400.50
2022-10-22T23:01:14.249Z,101400.66
2022-10-22T23:03:41.042Z,101382.63
2022-10-22T23:06:07.760Z,101380.53
2022-10-22T23:08:35.166Z,101376.00
2022-10-22T23:11:06.570Z,101379.97
2022-10-22T23:13:33.820Z,101387.78
2022-10-22T23:16:00.325Z,101385.41
2022-10-22T23:18:26.858Z,101388.81
2022-10-22T23:20:53.426Z,101375.13
2022-10-22T23:23:19.972Z,101377.75
2022-10-22T23:25:46.646Z,101377.56
2022-10-22T23:28:13.203Z,101374.16
2022-10-22T23:30:44.863Z,101367.81
2022-10-22T23:33:11.688Z,101363.09
2022-10-22T23:35:40.431Z,101358.56
2022-10-22T23:38:07.047Z,101368.34
2022-10-22T23:40:33.517Z,101375.19
2022-10-22T23:43:00.117Z,101378.75
2022-10-22T23:45:26.676Z,101371.22
2022-10-22T23:47:53.240Z,101364.03
2022-10-22T23:50:19.729Z,101369.59
2022-10-22T23:52:46.215Z,101364.75
2022-10-22T23:55:12.755Z,101370.63
2022-10-22T23:57:39.240Z,101363.44
